Time;durP1;ratioP1;P1;durP2;ratioP2;P2;SDS_P1;SDS_P2;PMS_P1;PMS_P2;Temp;Humidity;BMP_temperature;BMP_pressure;BME280_temperature;BME280_humidity;BME280_pressure;Samples;Min_cycle;Max_cycle;Signal;HPM_P1;HPM_P2
2022/05/26 00:00:42;;;;;;;0.50;0.33;;;11.00;1.40;;;11.76;100.00;95814.67;645740;216;31512;-75
2022/05/26 00:03:29;;;;;;;0.40;0.40;;;10.90;1.40;;;11.73;100.00;95808.77;619794;226;31808;-79
2022/05/26 00:07:07;;;;;;;0.60;0.30;;;10.90;1.40;;;11.68;100.00;95812.65;620179;222;31965;-79
2022/05/26 00:09:47;;;;;;;0.50;0.40;;;10.80;1.40;;;11.64;100.00;95809.58;620402;226;33774;-78
2022/05/26 00:12:30;;;;;;;0.60;0.30;;;10.90;1.40;;;11.54;100.00;95811.83;647698;216;31769;-77
2022/05/26 00:15:49;;;;;;;0.50;0.30;;;10.70;1.40;;;11.45;100.00;95810.80;646534;216;31477;-75
2022/05/26 00:21:17;;;;;;;0.43;0.30;;;10.50;1.40;;;11.33;100.00;95805.46;620325;222;32091;-77
2022/05/26 00:24:05;;;;;;;0.50;0.37;;;10.30;1.40;;;11.27;100.00;95805.52;647246;216;31519;-76
2022/05/26 00:26:50;;;;;;;0.50;0.30;;;10.20;1.40;;;11.28;100.00;95810.32;646048;216;31521;-76
2022/05/26 00:29:34;;;;;;;0.50;0.40;;;10.50;1.40;;;11.31;100.00;95818.30;619401;226;42909;-77
2022/05/26 00:32:14;;;;;;;0.90;0.30;;;10.60;1.40;;;11.34;100.00;95814.78;647658;212;31522;-77
2022/05/26 00:35:52;;;;;;;0.70;0.30;;;10.60;1.40;;;11.30;100.00;95816.48;647786;216;31859;-76
2022/05/26 00:38:33;;;;;;;0.90;0.40;;;10.50;1.40;;;11.26;100.00;95808.41;647205;216;31510;-77
2022/05/26 00:41:21;;;;;;;0.40;0.40;;;10.40;1.40;;;11.22;100.00;95810.01;646176;216;31496;-76
2022/05/26 00:44:09;;;;;;;0.70;0.70;;;10.40;1.40;;;11.22;100.00;95807.88;653202;216;25838;-77
2022/05/26 00:47:12;;;;;;;0.80;0.60;;;10.60;1.40;;;11.22;100.00;95811.90;619192;226;42503;-76
2022/05/26 00:50:15;;;;;;;0.50;0.50;;;10.50;1.40;;;11.17;100.00;95810.80;646662;216;42110;-77
2022/05/26 00:52:59;;;;;;;0.40;0.27;;;10.50;1.40;;;11.13;100.00;95808.78;646848;216;42114;-78
2022/05/26 00:55:41;;;;;;;0.68;0.35;;;10.50;1.40;;;11.14;100.00;95811.96;647063;212;31687;-77
2022/05/26 00:58:28;;;;;;;0.63;0.63;;;10.50;1.40;;;11.19;100.00;95813.31;646622;212;33691;-76
2022/05/26 01:01:08;;;;;;;0.50;0.40;;;10.60;1.40;;;11.19;100.00;95812.34;618345;226;42477;-76
2022/05/26 01:03:52;;;;;;;0.67;0.50;;;10.50;1.40;;;11.15;100.00;95806.25;646292;216;31485;-77
2022/05/26 01:06:34;;;;;;;0.50;0.30;;;10.50;1.40;;;11.12;100.00;95806.42;648767;216;31585;-78
2022/05/26 01:09:16;;;;;;;0.70;0.50;;;10.40;1.40;;;11.14;100.00;95809.20;646689;216;42939;-76
2022/05/26 01:11:58;;;;;;;0.70;0.70;;;10.40;1.40;;;11.07;100.00;95804.82;616831;227;31839;-76
2022/05/26 01:14:41;;;;;;;0.43;0.40;;;10.40;1.40;;;11.03;100.00;95808.96;619099;226;43309;-78
2022/05/26 01:20:43;;;;;;;0.40;0.32;;;10.40;1.40;;;11.05;100.00;95819.35;646182;216;31485;-76
2022/05/26 01:23:56;;;;;;;0.70;0.50;;;10.40;1.40;;;11.10;100.00;95822.89;618977;225;42628;-77
2022/05/26 01:27:14;;;;;;;0.43;0.27;;;10.50;1.40;;;11.13;100.00;95826.31;619626;222;42824;-77
2022/05/26 01:32:55;;;;;;;0.50;0.40;;;10.50;1.40;;;11.06;100.00;95824.27;630887;222;31672;-77
2022/05/26 01:36:13;;;;;;;0.70;0.30;;;10.40;1.40;;;10.99;100.00;95828.58;642077;216;31701;-77
2022/05/26 01:39:03;;;;;;;0.70;0.60;;;10.30;1.40;;;10.93;100.00;95833.03;646830;216;31659;-78
2022/05/26 01:42:12;;;;;;;0.60;0.60;;;10.30;1.40;;;10.86;100.00;95837.12;620645;222;42635;-78
2022/05/26 01:44:54;;;;;;;0.50;0.40;;;10.20;1.40;;;10.83;100.00;95832.56;646507;216;31473;-77
2022/05/26 01:47:51;;;;;;;0.50;0.40;;;10.20;1.40;;;10.80;100.00;95836.84;647535;212;31517;-77
2022/05/26 01:50:47;;;;;;;0.50;0.40;;;10.20;1.40;;;10.79;100.00;95830.78;620784;226;42669;-77
2022/05/26 01:53:29;;;;;;;0.40;0.30;;;10.10;1.40;;;10.79;100.00;95824.54;647098;216;32392;-78
2022/05/26 01:56:28;;;;;;;1.40;0.50;;;10.10;1.40;;;10.82;100.00;95825.79;647754;212;31578;-77
2022/05/26 01:59:18;;;;;;;1.03;0.63;;;10.20;1.40;;;10.79;100.00;95814.50;646677;216;31478;-76
2022/05/26 02:02:03;;;;;;;0.50;0.50;;;10.20;1.40;;;10.77;100.00;95816.30;646433;216;31560;-77
2022/05/26 02:04:48;;;;;;;0.67;0.50;;;10.10;1.40;;;10.74;100.00;95818.41;619117;222;35730;-77
2022/05/26 02:10:09;;;;;;;0.90;0.50;;;9.80;1.40;;;10.62;100.00;95814.92;630852;222;31704;-78
2022/05/26 02:12:53;;;;;;;0.40;0.30;;;9.70;1.40;;;10.55;100.00;95818.36;647041;216;31495;-77
2022/05/26 02:15:40;;;;;;;0.60;0.43;;;9.60;1.40;;;10.59;100.00;95829.58;648437;212;42137;-78
2022/05/26 02:18:27;;;;;;;0.50;0.30;;;9.80;1.40;;;10.66;100.00;95826.40;619817;226;42459;-76
2022/05/26 02:21:15;;;;;;;1.00;0.70;;;10.00;1.40;;;10.68;100.00;95827.67;647278;212;31461;-77
2022/05/26 02:24:07;;;;;;;0.53;0.43;;;10.00;1.40;;;10.62;100.00;95823.92;647039;216;31509;-77
2022/05/26 02:26:51;;;;;;;2.20;0.70;;;9.80;1.40;;;10.59;100.00;95827.73;647396;216;32078;-78
2022/05/26 02:35:52;;;;;;;1.70;0.60;;;9.90;1.40;;;10.58;100.00;95823.91;620031;226;31889;-78
2022/05/26 02:38:33;;;;;;;0.40;0.40;;;10.00;1.40;;;10.68;100.00;95822.89;619108;226;32247;-78
2022/05/26 02:41:17;;;;;;;0.80;0.60;;;10.10;1.40;;;10.64;100.00;95819.81;646825;216;42151;-76
2022/05/26 02:44:01;;;;;;;0.70;0.40;;;10.00;1.40;;;10.64;100.00;95815.75;647673;212;42440;-78
2022/05/26 02:46:50;;;;;;;0.50;0.43;;;10.00;1.40;;;10.58;100.00;95820.16;645826;216;42448;-79
2022/05/26 02:52:50;;;;;;;0.60;0.60;;;9.80;1.40;;;10.52;100.00;95830.93;647503;216;31459;-76
2022/05/26 02:56:03;;;;;;;0.63;0.50;;;9.90;1.40;;;10.48;100.00;95835.34;620340;226;42884;-76
2022/05/26 02:58:52;;;;;;;0.50;0.50;;;9.80;1.40;;;10.41;100.00;95837.91;647388;212;42166;-76
2022/05/26 03:01:37;;;;;;;0.40;0.33;;;9.80;1.40;;;10.44;100.00;95834.31;647414;212;31556;-77
2022/05/26 03:04:26;;;;;;;0.70;0.50;;;9.80;1.40;;;10.46;100.00;95841.32;647881;216;42153;-76
2022/05/26 03:07:13;;;;;;;0.50;0.30;;;9.90;1.40;;;10.45;100.00;95847.95;646437;216;31534;-77
2022/05/26 03:10:03;;;;;;;1.40;0.80;;;9.80;1.40;;;10.49;100.00;95855.59;647244;216;31506;-78
2022/05/26 03:12:44;;;;;;;1.70;0.90;;;9.80;1.40;;;10.50;100.00;95854.02;620035;222;31965;-76
2022/05/26 03:15:27;;;;;;;0.70;0.50;;;9.70;1.40;;;10.52;100.00;95850.94;648868;212;31635;-77
2022/05/26 03:18:09;;;;;;;0.80;0.60;;;9.70;1.40;;;10.52;100.00;95851.48;647228;212;31494;-77
2022/05/26 03:20:52;;;;;;;0.70;0.50;;;9.80;1.40;;;10.47;100.00;95854.38;620220;226;32047;-76
2022/05/26 03:23:33;;;;;;;0.70;0.50;;;9.80;1.40;;;10.40;100.00;95857.33;648346;216;42128;-76
2022/05/26 03:26:16;;;;;;;0.90;0.50;;;9.70;1.40;;;10.39;100.00;95854.84;648158;216;31481;-77
2022/05/26 03:28:57;;;;;;;1.10;0.80;;;9.70;1.40;;;10.42;100.00;95854.98;646899;212;31538;-77
2022/05/26 03:31:38;;;;;;;0.60;0.50;;;9.70;1.40;;;10.43;100.00;95858.18;647143;216;42479;-79
2022/05/26 03:41:29;;;;;;;0.50;0.20;;;9.90;1.40;;;10.51;100.00;95867.55;645469;216;31516;-77
2022/05/26 03:44:13;;;;;;;1.37;0.95;;;9.90;1.40;;;10.53;100.00;95876.85;648463;216;31616;-77
2022/05/26 03:46:58;;;;;;;0.60;0.40;;;9.80;1.40;;;10.60;100.00;95873.08;646738;216;42425;-77
2022/05/26 03:49:39;;;;;;;0.70;0.50;;;9.90;1.40;;;10.73;100.00;95875.70;647105;212;33472;-77
2022/05/26 03:52:23;;;;;;;1.10;0.50;;;9.90;1.40;;;10.79;100.00;95879.27;646422;216;31552;-76
2022/05/26 03:55:07;;;;;;;0.50;0.40;;;10.10;1.40;;;10.85;100.00;95883.72;646485;212;31555;-79
2022/05/26 03:57:51;;;;;;;0.80;0.60;;;10.20;1.40;;;10.92;100.00;95880.41;646332;216;31571;-76
2022/05/26 04:00:41;;;;;;;1.20;0.60;;;10.30;1.40;;;11.06;100.00;95885.86;648069;216;33435;-76
2022/05/26 04:03:22;;;;;;;0.50;0.50;;;10.40;1.40;;;11.07;100.00;95897.73;619255;226;32069;-79
2022/05/26 04:06:04;;;;;;;0.40;0.40;;;10.30;1.40;;;11.10;100.00;95900.06;619515;226;31819;-77
2022/05/26 04:08:50;;;;;;;0.43;0.40;;;10.30;1.40;;;11.13;100.00;95900.77;613704;222;32038;-79
2022/05/26 04:11:37;;;;;;;0.60;0.40;;;10.30;1.40;;;11.11;100.00;95903.74;645579;216;31603;-75
2022/05/26 04:14:22;;;;;;;0.80;0.60;;;10.30;1.40;;;11.19;100.00;95908.52;646504;216;31482;-75
2022/05/26 04:17:10;;;;;;;0.70;0.40;;;10.30;1.40;;;11.19;100.00;95914.44;647067;212;32074;-77
2022/05/26 04:19:52;;;;;;;0.40;0.37;;;10.50;1.40;;;11.27;100.00;95919.79;618759;222;33149;-78
2022/05/26 04:22:33;;;;;;;0.60;0.50;;;10.50;1.40;;;11.40;100.00;95932.41;647497;212;31630;-76
2022/05/26 04:25:16;;;;;;;0.50;0.30;;;10.60;1.40;;;11.53;100.00;95930.57;647224;213;31528;-76
2022/05/26 04:27:59;;;;;;;1.03;0.90;;;10.80;1.40;;;11.64;100.00;95928.52;619910;226;32294;-76
2022/05/26 04:30:46;;;;;;;0.90;0.47;;;10.90;1.40;;;11.76;100.00;95932.79;619383;226;32395;-76
2022/05/26 04:35:53;;;;;;;0.90;0.90;;;11.00;1.40;;;11.82;100.00;95935.69;645758;216;32274;-77
2022/05/26 04:38:43;;;;;;;0.60;0.47;;;11.00;1.40;;;11.90;100.00;95941.12;647324;212;31504;-77
2022/05/26 04:41:23;;;;;;;0.50;0.40;;;11.10;1.40;;;12.00;100.00;95940.98;648276;216;31972;-77
2022/05/26 04:44:06;;;;;;;0.52;0.52;;;11.20;1.40;;;12.05;100.00;95945.61;647069;216;32873;-77
2022/05/26 04:46:46;;;;;;;0.70;0.60;;;11.20;1.40;;;12.18;100.00;95943.55;648468;216;31487;-76
2022/05/26 04:49:31;;;;;;;2.00;0.70;;;11.40;1.40;;;12.24;100.00;95948.97;648364;212;34262;-79
2022/05/26 04:52:14;;;;;;;0.57;0.57;;;11.40;1.40;;;12.26;100.00;95948.48;646379;212;31633;-79
2022/05/26 04:54:55;;;;;;;0.50;0.40;;;11.40;1.40;;;12.30;100.00;95945.87;646692;216;31940;-78
2022/05/26 04:57:38;;;;;;;1.20;0.80;;;11.40;1.40;;;12.41;100.00;95947.70;645564;216;31831;-76
2022/05/26 05:00:20;;;;;;;0.88;0.77;;;11.40;1.40;;;12.36;100.00;95947.48;648680;216;31483;-77
2022/05/26 05:03:02;;;;;;;0.40;0.30;;;11.40;1.40;;;12.37;100.00;95945.67;646251;212;34028;-76
2022/05/26 05:05:47;;;;;;;0.50;0.47;;;11.30;1.40;;;12.41;100.00;95945.32;619634;222;31964;-75
2022/05/26 05:11:11;;;;;;;0.65;0.60;;;11.70;1.40;;;12.84;100.00;95953.27;646443;216;31569;-77
2022/05/26 05:13:54;;;;;;;0.60;0.57;;;11.90;1.40;;;13.09;100.00;95959.48;645995;216;42129;-76
2022/05/26 05:16:42;;;;;;;0.80;0.60;;;12.00;1.40;;;13.26;100.00;95966.17;646600;212;42704;-77
2022/05/26 05:19:20;;;;;;;0.60;0.32;;;12.10;1.40;;;13.56;100.00;95967.92;649172;216;31461;-77
2022/05/26 05:22:05;;;;;;;0.60;0.37;;;12.40;1.40;;;13.65;100.00;95968.09;647678;216;31491;-77
2022/05/26 05:24:51;;;;;;;0.60;0.60;;;12.40;1.40;;;13.88;100.00;95969.42;646652;216;42143;-78
2022/05/26 05:27:51;;;;;;;0.68;0.50;;;12.60;1.40;;;13.82;100.00;95975.42;645848;216;31509;-76
2022/05/26 05:30:42;;;;;;;1.00;0.50;;;12.50;1.40;;;13.71;100.00;95978.35;646473;216;31508;-77
2022/05/26 05:35:54;;;;;;;0.93;0.73;;;12.70;1.40;;;13.86;100.00;95983.38;618899;222;31861;-79
2022/05/26 05:38:38;;;;;;;0.47;0.40;;;12.70;1.40;;;13.98;100.00;95987.09;647526;216;31698;-77
2022/05/26 05:41:20;;;;;;;0.60;0.50;;;12.80;1.40;;;14.03;100.00;95992.72;645599;216;32258;-75
2022/05/26 05:44:10;;;;;;;0.90;0.80;;;12.90;1.40;;;14.29;100.00;95996.58;646256;216;31506;-77
2022/05/26 05:46:58;;;;;;;0.60;0.50;;;13.10;1.40;;;14.52;100.00;96001.22;646788;213;31478;-76
2022/05/26 05:49:40;;;;;;;0.60;0.40;;;13.30;1.40;;;14.52;100.00;95997.05;646431;216;31602;-76
2022/05/26 05:52:25;;;;;;;0.60;0.55;;;13.40;1.40;;;14.91;100.00;96005.97;646344;216;32837;-78
2022/05/26 05:55:07;;;;;;;0.70;0.68;;;13.70;1.40;;;14.67;100.00;96012.01;647401;216;31490;-77
2022/05/26 05:57:51;;;;;;;1.00;0.60;;;13.70;1.40;;;14.70;100.00;96014.03;647145;216;31516;-76
2022/05/26 06:00:33;;;;;;;0.52;0.50;;;13.70;1.40;;;14.78;100.00;96019.75;646772;216;31506;-77
2022/05/26 06:03:17;;;;;;;0.70;0.50;;;13.80;1.40;;;14.74;100.00;96019.38;646625;216;31869;-77
2022/05/26 06:06:00;;;;;;;0.50;0.40;;;13.80;1.40;;;14.89;100.00;96022.58;646524;216;31477;-78
2022/05/26 06:08:47;;;;;;;0.52;0.40;;;13.80;1.40;;;14.85;100.00;96021.69;643385;212;31683;-77
2022/05/26 06:11:33;;;;;;;0.62;0.62;;;13.80;1.40;;;14.87;100.00;96018.34;646342;216;31465;-79
2022/05/26 06:14:23;;;;;;;0.75;0.70;;;13.90;1.40;;;15.17;100.00;96023.24;645941;216;31513;-76
2022/05/26 06:17:07;;;;;;;0.73;0.60;;;13.90;1.40;;;15.14;100.00;96022.73;619190;222;31863;-79
2022/05/26 06:19:49;;;;;;;0.73;0.60;;;13.90;1.40;;;15.20;100.00;96025.23;647297;216;31452;-78
2022/05/26 06:22:35;;;;;;;0.85;0.70;;;14.00;1.40;;;15.19;100.00;96030.29;647024;216;42137;-76
2022/05/26 06:25:14;;;;;;;0.80;0.60;;;14.10;1.40;;;14.89;100.00;96039.66;646905;216;31488;-75
2022/05/26 06:30:43;;;;;;;0.50;0.30;;;14.10;1.40;;;14.86;100.00;96038.37;645026;216;31535;-76
2022/05/26 06:38:42;;;;;;;0.95;0.75;;;14.50;1.40;;;15.19;100.00;96047.27;646353;212;31479;-75
2022/05/26 06:44:10;;;;;;;0.90;0.60;;;14.60;1.40;;;15.37;100.00;96049.00;645892;216;32152;-76
2022/05/26 06:46:52;;;;;;;0.95;0.62;;;14.70;1.40;;;15.54;100.00;96052.63;647163;216;31470;-75
2022/05/26 06:49:34;;;;;;;0.70;0.50;;;14.80;1.40;;;15.77;100.00;96055.30;647327;216;31462;-75
2022/05/26 06:52:19;;;;;;;1.00;0.50;;;14.80;1.40;;;15.56;100.00;96053.41;646637;216;31537;-76
2022/05/26 06:55:08;;;;;;;0.90;0.50;;;14.70;1.40;;;15.66;100.00;96059.21;648034;216;31466;-78
2022/05/26 06:57:51;;;;;;;0.60;0.40;;;14.90;1.40;;;15.73;100.00;96058.17;646495;216;32239;-74
2022/05/26 07:00:33;;;;;;;1.90;0.60;;;14.90;1.40;;;15.82;100.00;96058.06;646420;216;31597;-75
2022/05/26 07:03:15;;;;;;;0.70;0.55;;;15.10;1.40;;;15.83;100.00;96061.47;645727;212;31508;-74
2022/05/26 07:06:03;;;;;;;0.80;0.60;;;15.10;1.40;;;16.05;100.00;96065.52;646912;212;31524;-76
2022/05/26 07:08:46;;;;;;;0.70;0.50;;;15.30;1.40;;;16.16;100.00;96067.58;643115;216;31745;-74
2022/05/26 07:11:28;;;;;;;1.00;0.40;;;15.30;1.40;;;16.03;100.00;96074.53;646044;216;31548;-75
2022/05/26 07:14:10;;;;;;;0.80;0.60;;;15.20;1.40;;;16.24;100.00;96069.32;619069;226;31816;-74
2022/05/26 07:16:51;;;;;;;5.40;0.90;;;15.40;1.40;;;16.42;100.00;96066.53;618524;225;31825;-74
2022/05/26 07:19:34;;;;;;;0.50;0.30;;;15.60;1.40;;;16.66;100.00;96070.26;646814;212;31494;-75
2022/05/26 07:22:19;;;;;;;0.70;0.40;;;15.90;1.40;;;16.55;100.00;96064.84;646747;216;32064;-76
2022/05/26 07:25:01;;;;;;;0.80;0.30;;;15.70;1.40;;;16.46;100.00;96062.18;619294;226;42639;-75
2022/05/26 07:27:43;;;;;;;2.17;1.17;;;15.80;1.40;;;16.69;100.00;96062.88;647078;216;31700;-74
2022/05/26 07:30:28;;;;;;;0.80;0.50;;;16.00;1.40;;;16.88;100.00;96057.97;647087;216;31519;-77
2022/05/26 07:35:58;;;;;;;0.60;0.30;;;16.20;1.40;;;16.87;100.00;96067.91;646059;216;31490;-75
2022/05/26 07:41:36;;;;;;;0.70;0.40;;;16.20;1.40;;;16.97;100.00;96073.39;646225;216;31586;-74
2022/05/26 07:44:18;;;;;;;0.70;0.68;;;16.40;1.40;;;17.05;100.00;96063.14;646174;212;31797;-75
2022/05/26 07:46:59;;;;;;;0.60;0.40;;;16.40;1.40;;;16.92;100.00;96066.09;618114;225;31838;-75
2022/05/26 07:49:44;;;;;;;0.60;0.40;;;16.20;1.40;;;17.04;100.00;96066.98;646877;212;31508;-75
2022/05/26 07:52:26;;;;;;;0.60;0.50;;;16.40;1.40;;;16.91;100.00;96063.42;646803;212;31530;-74
2022/05/26 07:55:08;;;;;;;0.50;0.50;;;16.30;1.40;;;16.85;100.00;96066.44;647500;212;31482;-75
2022/05/26 07:57:53;;;;;;;0.80;0.40;;;16.50;1.40;;;16.93;100.00;96067.28;618226;222;32332;-74
2022/05/26 08:00:34;;;;;;;0.60;0.40;;;16.70;1.40;;;17.10;100.00;96074.86;619987;226;32331;-75
2022/05/26 08:03:16;;;;;;;0.45;0.30;;;16.90;1.40;;;17.12;100.00;96068.86;645548;215;31571;-74
2022/05/26 08:05:58;;;;;;;0.52;0.32;;;16.80;1.40;;;17.22;100.00;96077.83;617874;226;31966;-76
2022/05/26 08:08:39;;;;;;;0.80;0.60;;;16.90;1.40;;;17.48;100.00;96065.22;649214;216;31627;-75
2022/05/26 08:11:21;;;;;;;0.50;0.35;;;17.10;1.40;;;17.83;100.00;96066.09;651863;212;31684;-74
2022/05/26 08:14:03;;;;;;;1.40;0.40;;;17.40;1.40;;;17.89;100.00;96063.69;646009;214;31483;-75
2022/05/26 08:16:45;;;;;;;1.70;0.60;;;17.30;1.40;;;17.93;100.00;96061.08;646369;212;31542;-75
2022/05/26 08:19:26;;;;;;;0.60;0.30;;;17.20;1.40;;;18.55;100.00;96063.75;649659;212;31464;-75
2022/05/26 08:22:11;;;;;;;0.80;0.68;;;18.00;1.40;;;18.82;100.00;96064.94;647731;216;31882;-75
2022/05/26 08:24:53;;;;;;;2.30;0.40;;;18.10;1.40;;;18.76;100.00;96066.78;645223;216;31716;-75
2022/05/26 08:27:34;;;;;;;0.70;0.50;;;17.60;1.40;;;18.39;100.00;96063.18;647435;216;42088;-75
2022/05/26 08:30:16;;;;;;;0.82;0.32;;;17.40;1.40;;;18.54;100.00;96062.95;646638;216;31497;-75
2022/05/26 08:33:02;;;;;;;0.50;0.40;;;17.60;1.40;;;18.70;100.00;96060.92;645638;216;32069;-75
2022/05/26 08:35:51;;;;;;;0.55;0.40;;;18.00;1.40;;;18.45;94.60;96061.70;648187;216;31476;-75
2022/05/26 08:38:33;;;;;;;0.50;0.30;;;17.60;1.40;;;18.36;94.96;96059.23;648244;216;31845;-75
2022/05/26 08:41:16;;;;;;;0.50;0.40;;;17.50;1.40;;;18.90;99.78;96054.30;648388;216;31528;-75
2022/05/26 08:44:03;;;;;;;0.60;0.47;;;18.10;1.40;;;19.10;95.72;96058.75;645741;212;31627;-74
2022/05/26 08:46:48;;;;;;;0.50;0.40;;;18.30;1.40;;;19.08;94.73;96066.35;648776;212;31488;-74
2022/05/26 08:49:45;;;;;;;0.50;0.30;;;18.10;1.40;;;18.83;98.22;96066.51;647170;216;34509;-74
2022/05/26 08:52:35;;;;;;;0.70;0.30;;;18.30;1.40;;;19.16;89.12;96059.69;650049;216;31483;-75
2022/05/26 08:55:19;;;;;;;0.40;0.30;;;18.40;1.40;;;19.51;84.78;96064.61;650636;216;31729;-75
2022/05/26 08:58:06;;;;;;;0.50;0.40;;;18.30;1.40;;;19.41;88.55;96072.34;644550;216;42105;-75
2022/05/26 09:00:46;;;;;;;0.50;0.30;;;18.50;1.40;;;19.38;92.46;96070.83;644879;216;31612;-74
2022/05/26 09:03:31;;;;;;;0.60;0.40;;;18.60;1.40;;;19.40;83.54;96072.73;646325;216;42746;-74
2022/05/26 09:06:14;;;;;;;0.70;0.30;;;18.10;1.40;;;18.97;88.54;96072.73;645780;216;31532;-74
2022/05/26 09:14:38;;;;;;;1.00;0.60;;;17.70;1.40;;;19.34;89.80;96078.30;640996;214;32049;-74
2022/05/26 09:17:23;;;;;;;0.70;0.50;;;18.70;1.40;;;19.14;89.08;96082.00;649808;216;31581;-74
2022/05/26 09:20:06;;;;;;;0.40;0.30;;;18.10;1.40;;;18.84;91.45;96079.95;647670;216;31914;-74
2022/05/26 09:22:48;;;;;;;4.22;0.57;;;18.00;1.40;;;20.02;82.42;96077.04;645328;212;31619;-74
2022/05/26 09:25:37;;;;;;;0.70;0.50;;;20.20;1.40;;;19.73;80.56;96074.57;647452;212;31570;-75
2022/05/26 09:28:27;;;;;;;0.95;0.52;;;19.00;1.40;;;19.72;86.28;96080.80;648231;216;31476;-74
2022/05/26 09:31:31;;;;;;;0.40;0.30;;;18.90;1.40;;;19.44;86.26;96081.67;646760;212;42143;-74
2022/05/26 09:38:25;;;;;;;1.20;0.40;;;23.30;1.40;;;23.53;69.22;96070.15;642594;219;42565;-74
2022/05/26 09:41:06;;;;;;;0.65;0.30;;;24.20;1.40;;;23.70;62.29;96079.31;649934;216;31578;-75
2022/05/26 09:43:49;;;;;;;0.70;0.30;;;23.50;1.40;;;25.01;60.35;96071.14;647859;212;31983;-74
2022/05/26 09:46:30;;;;;;;1.00;0.50;;;25.10;99.90;;;24.98;55.16;96078.61;648626;212;31506;-76
2022/05/26 09:49:15;;;;;;;0.75;0.35;;;23.40;1.40;;;22.73;62.79;96080.38;649472;212;31501;-75
2022/05/26 09:52:06;;;;;;;0.60;0.30;;;20.10;1.40;;;23.30;69.74;96079.20;618010;226;31801;-75
2022/05/26 09:54:47;;;;;;;0.40;0.30;;;23.00;1.40;;;24.10;60.86;96072.77;645267;216;31497;-74
2022/05/26 09:57:29;;;;;;;0.55;0.30;;;22.20;1.40;;;23.94;61.24;96074.74;647814;216;31492;-75
2022/05/26 10:00:19;;;;;;;0.80;0.40;;;24.00;99.90;;;24.07;58.18;96072.72;649942;216;31626;-75
2022/05/26 10:03:01;;;;;;;2.40;0.90;;;21.40;99.90;;;22.34;66.90;96080.83;618021;226;32114;-74
2022/05/26 10:05:46;;;;;;;0.62;0.40;;;20.70;1.40;;;21.94;66.31;96089.48;645453;216;31833;-74
2022/05/26 10:08:46;;;;;;;3.10;0.37;;;20.10;99.90;;;22.27;65.56;96088.04;644740;216;32938;-73
2022/05/26 10:12:08;;;;;;;0.40;0.30;;;20.70;99.90;;;22.73;64.03;96083.64;645996;212;32089;-74
2022/05/26 10:14:56;;;;;;;0.60;0.40;;;21.20;99.90;;;22.14;61.48;96086.84;648889;216;42285;-75
2022/05/26 10:18:08;;;;;;;0.90;0.40;;;20.30;1.40;;;22.16;65.13;96087.45;646810;212;31574;-74
2022/05/26 10:21:03;;;;;;;2.00;0.60;;;20.50;1.40;;;22.30;66.12;96082.89;647708;216;31532;-79
2022/05/26 10:24:28;;;;;;;0.50;0.30;;;20.20;1.40;;;21.59;69.56;96096.97;621717;226;42481;-73
2022/05/26 10:27:37;;;;;;;0.60;0.40;;;20.30;99.90;;;21.59;67.27;96094.12;651398;216;42263;-75
2022/05/26 10:30:25;;;;;;;1.40;0.50;;;20.00;1.40;;;22.19;64.26;96088.11;647860;216;31486;-74
2022/05/26 10:35:56;;;;;;;0.80;0.50;;;24.30;99.90;;;26.31;57.00;96074.29;645595;216;31506;-75
2022/05/26 10:38:48;;;;;;;1.50;0.30;;;25.10;99.90;;;25.74;53.90;96073.44;648023;216;31561;-75
2022/05/26 10:41:35;;;;;;;0.90;0.30;;;24.30;99.90;;;24.66;57.38;96073.92;645927;212;32276;-74
2022/05/26 10:44:24;;;;;;;0.50;0.30;;;23.50;99.90;;;25.09;57.08;96075.98;648570;216;31595;-75
2022/05/26 10:47:06;;;;;;;0.60;0.40;;;23.30;99.90;;;24.86;57.18;96074.00;646184;216;42102;-74
2022/05/26 10:49:58;;;;;;;0.80;0.57;;;22.40;99.90;;;23.71;56.06;96075.02;648593;212;31478;-75
2022/05/26 10:52:40;;;;;;;0.40;0.30;;;21.20;99.90;;;23.21;59.51;96078.41;644839;216;31479;-74
2022/05/26 10:55:22;;;;;;;0.50;0.32;;;21.80;99.90;;;24.87;55.41;96075.48;645655;212;31526;-74
2022/05/26 10:58:08;;;;;;;0.70;0.50;;;23.90;99.90;;;24.35;54.57;96073.13;647284;212;31514;-75
2022/05/26 11:00:53;;;;;;;0.88;0.40;;;21.60;99.90;;;21.81;61.50;96083.44;649791;212;31494;-74
2022/05/26 11:03:39;;;;;;;1.50;0.40;;;19.60;1.40;;;23.35;65.91;96064.88;647358;216;31804;-74
2022/05/26 11:06:22;;;;;;;0.52;0.40;;;22.70;99.90;;;24.28;59.87;96060.83;647016;216;42263;-75
2022/05/26 11:09:16;;;;;;;0.50;0.40;;;21.80;1.40;;;24.24;57.83;96056.42;647757;212;31579;-74
2022/05/26 11:18:01;;;;;;;0.77;0.37;;;22.90;99.90;;;25.12;52.87;96058.38;645494;216;42152;-75
2022/05/26 11:20:43;;;;;;;0.90;0.40;;;24.20;99.90;;;26.85;49.15;96057.24;648316;216;31495;-74
2022/05/26 11:23:25;;;;;;;0.70;0.50;;;24.40;99.90;;;27.45;46.45;96051.06;647266;216;31515;-76
2022/05/26 11:26:47;;;;;;;3.92;0.60;;;24.70;99.90;;;27.71;46.40;96046.40;647073;216;31488;-75
2022/05/26 11:29:33;;;;;;;0.50;0.40;;;24.00;99.90;;;26.53;48.83;96051.03;652106;216;32109;-75
2022/05/26 11:38:42;;;;;;;0.50;0.45;;;24.40;1.00;;;27.36;48.27;96049.23;648020;216;31511;-74
2022/05/26 11:41:28;;;;;;;0.70;0.40;;;24.70;99.90;;;27.49;47.00;96046.02;645755;212;31604;-75
2022/05/26 11:44:11;;;;;;;1.05;0.40;;;24.30;99.90;;;27.04;48.47;96044.13;645175;216;31650;-75
2022/05/26 11:49:58;;;;;;;1.50;0.40;;;22.20;1.00;;;24.03;52.74;96048.16;647257;216;31512;-75
2022/05/26 11:52:57;;;;;;;0.50;0.30;;;22.20;99.90;;;25.17;50.12;96047.98;649981;212;31480;-74
2022/05/26 11:55:48;;;;;;;0.80;0.50;;;22.70;99.90;;;25.34;51.39;96047.98;650673;212;31466;-74
2022/05/26 11:58:41;;;;;;;0.60;0.40;;;23.30;99.90;;;26.63;47.22;96037.28;647180;212;31471;-75
2022/05/26 12:01:36;;;;;;;0.80;0.40;;;23.10;99.90;;;25.04;50.40;96044.86;648066;216;42301;-75
2022/05/26 12:06:58;;;;;;;0.70;0.50;;;22.80;99.90;;;25.78;49.81;96036.64;645847;216;31502;-75
2022/05/26 12:09:58;;;;;;;0.70;0.50;;;23.40;99.90;;;26.98;49.96;96030.68;638977;212;31615;-74
2022/05/26 12:12:40;;;;;;;2.00;0.30;;;24.10;99.90;;;27.50;45.54;96022.92;646419;212;31647;-74
2022/05/26 12:15:22;;;;;;;0.50;0.40;;;24.20;99.90;;;25.87;49.62;96030.55;644903;216;31516;-74
2022/05/26 12:18:03;;;;;;;0.70;0.40;;;23.40;99.90;;;26.11;45.93;96026.06;645377;212;32613;-75
2022/05/26 12:20:46;;;;;;;0.90;0.60;;;23.00;99.90;;;26.52;48.93;96015.89;619999;226;31965;-75
2022/05/26 12:26:25;;;;;;;0.40;0.32;;;23.30;99.90;;;25.89;49.40;96014.96;648582;216;31475;-74
2022/05/26 12:29:24;;;;;;;0.60;0.40;;;23.30;1.00;;;25.33;49.34;96010.98;644419;212;32172;-75
2022/05/26 12:32:09;;;;;;;1.10;0.50;;;22.20;99.90;;;23.59;51.08;96020.25;647192;216;42101;-74
2022/05/26 12:36:19;;;;;;;0.60;0.40;;;20.90;99.90;;;22.91;53.69;96021.82;644847;216;32812;-74
2022/05/26 12:39:22;;;;;;;1.00;0.30;;;22.00;99.90;;;25.28;50.56;96008.88;624456;225;31810;-74
2022/05/26 12:42:03;;;;;;;0.50;0.40;;;23.30;1.00;;;25.95;49.22;96010.34;645555;212;31494;-75
2022/05/26 12:45:08;;;;;;;0.50;0.30;;;23.50;99.90;;;26.59;47.77;96004.45;647368;216;42749;-75
2022/05/26 12:48:07;;;;;;;2.50;0.50;;;23.70;99.90;;;26.82;44.97;95995.59;647616;216;31466;-75
2022/05/26 12:50:49;;;;;;;0.70;0.35;;;24.00;99.90;;;27.26;44.94;95999.24;648228;216;31472;-75
2022/05/26 12:53:30;;;;;;;1.00;0.50;;;24.10;99.90;;;28.30;43.71;95997.31;647780;212;31472;-74
2022/05/26 12:56:13;;;;;;;0.50;0.30;;;24.30;99.90;;;27.81;44.97;95993.75;648888;212;31680;-75
2022/05/26 12:58:56;;;;;;;0.50;0.40;;;24.00;99.90;;;26.10;45.85;95994.69;645577;216;31555;-74
2022/05/26 13:01:38;;;;;;;0.70;0.40;;;22.50;99.90;;;24.26;48.12;95998.95;618989;222;31793;-75
2022/05/26 13:04:24;;;;;;;1.60;0.40;;;21.40;99.90;;;24.37;50.11;95997.66;648392;216;31632;-75
2022/05/26 13:07:06;;;;;;;1.90;0.40;;;22.50;99.90;;;26.65;50.02;95985.38;644302;212;31723;-74
2022/05/26 13:09:47;;;;;;;1.00;0.30;;;23.90;1.40;;;27.31;47.07;95991.66;637204;212;31628;-75